Airfield :
LOGIN :

Register | Disclaimer

   EN    FR    IT 

 










Legend :    VFR   Marginal VFR   IFR   Intensive IFR   Very Intensive IFR
Visi :
Ceiling :
>= 8 km
>= 3000ft
5 to 8 km
1000 to 3000 ft
1500m to 5 km
500 to 1000 ft
800 to 1500m
200 to 500 ft
< 800m
< 200 ft
Symbols :   Thunderstorms  Fog  Heavy snow  Heavy precipitations  Wind > 20 kt
SIGMETs :     Misc.  Thunderstorms  Icing  Turbulence  Mountain Waves  Volcanic Ashes







- Airport Elevation : 194 ft
- IATA code : IEG


EPZG - Zielona Gora Babimost

CURRENT METAR :
  • 132300Z 03003KT 5000 BR NSC M01/M02 Q1024

EXPIRED METARs :
  • 132230Z 03004KT 5000 BR NSC M01/M02 Q1024
  • 132200Z 03003KT 5000 BR FEW043 M01/M02 Q1023
  • 132130Z 04002KT 8000 SCT043 M01/M02 Q1024
  • 132100Z VRB02KT 9999 SCT039 M01/M02 Q1023
  • 132030Z 07003KT 9999 BKN036 M01/M02 Q1023

TAF TAF EPZG
Valid from the 13 at 21:00 until the 14 at 06:00 UTC


132030Z 1321/1406 07004KT 8000 BKN030
PROB40
TEMPO 1402/1406 3000 BR BKN006 BKN013
No reported NOTAMs for that airfield.



MET'MAP, your aeronautical weather chart ! - Copyright ORBIFLY December 2007 - Disclaimer

ORBIFLY MET'MAP TEAM :

Programming & Development : Alexandra Zaïnal
Concept & Development : Baudouin d'Aumeries
Co-Development & Prog : Marc-Olivier Méhu
Technical & hardware support : Manuel Goepfert

Contact : metmap@orbifly.com




SOURCES & CREDITS :

   NOAA